createdAt,value
2018-12-14T00:00:48.394Z,8.50
2018-12-14T00:03:17.830Z,8.50
2018-12-14T00:05:48.018Z,8.40
2018-12-14T00:08:17.412Z,8.30
2018-12-14T00:10:47.114Z,8.30
2018-12-14T00:13:17.323Z,8.40
2018-12-14T00:15:47.555Z,8.40
2018-12-14T00:18:19.827Z,8.50
2018-12-14T00:20:50.542Z,8.40
2018-12-14T00:23:21.831Z,8.50
2018-12-14T00:25:52.711Z,8.50
2018-12-14T00:28:22.197Z,8.50
2018-12-14T00:30:51.780Z,8.50
2018-12-14T00:33:21.501Z,8.50
2018-12-14T00:35:50.843Z,8.50
2018-12-14T00:38:20.546Z,8.50
2018-12-14T00:40:50.120Z,8.50
2018-12-14T00:43:19.660Z,8.50
2018-12-14T00:45:49.490Z,8.50
2018-12-14T00:48:18.894Z,8.50
2018-12-14T00:50:48.450Z,8.50
2018-12-14T00:53:18.051Z,8.50
2018-12-14T00:55:47.832Z,8.60
2018-12-14T00:58:17.267Z,8.50
2018-12-14T01:00:46.876Z,8.50
2018-12-14T01:03:16.517Z,8.50
2018-12-14T01:05:46.359Z,8.50
2018-12-14T01:08:15.666Z,8.60
2018-12-14T01:10:45.157Z,8.50
2018-12-14T01:13:15.499Z,8.60
2018-12-14T01:15:45.853Z,8.60
2018-12-14T01:18:16.096Z,8.60
2018-12-14T01:20:45.419Z,8.60
2018-12-14T01:23:15.811Z,8.70
2018-12-14T01:25:45.421Z,8.70
2018-12-14T01:28:16.260Z,8.70
2018-12-14T01:30:47.432Z,8.70
2018-12-14T01:33:17.266Z,8.60
2018-12-14T01:35:46.979Z,8.70
2018-12-14T01:38:17.128Z,8.70
2018-12-14T01:40:46.528Z,8.60
2018-12-14T01:43:16.005Z,8.60
2018-12-14T01:45:45.636Z,8.70
2018-12-14T01:48:15.025Z,8.70
2018-12-14T01:50:44.576Z,8.70
2018-12-14T01:53:13.989Z,8.80
2018-12-14T01:55:43.368Z,8.70
2018-12-14T01:58:12.963Z,8.70
2018-12-14T02:00:42.552Z,8.70
2018-12-14T02:03:12.195Z,8.70
2018-12-14T02:05:41.562Z,8.70
2018-12-14T02:08:11.178Z,8.80
2018-12-14T02:10:40.571Z,8.70
2018-12-14T02:13:09.970Z,8.80
2018-12-14T02:15:40.194Z,8.80
2018-12-14T02:18:10.516Z,8.80
2018-12-14T02:20:39.982Z,8.80
2018-12-14T02:23:10.256Z,8.80
2018-12-14T02:25:39.722Z,8.80
2018-12-14T02:28:09.121Z,8.90
2018-12-14T02:30:42.864Z,8.90
2018-12-14T02:33:12.271Z,8.90
2018-12-14T02:35:42.044Z,8.90
2018-12-14T02:38:12.803Z,8.90
2018-12-14T02:40:42.261Z,8.90
2018-12-14T02:43:11.750Z,8.90
2018-12-14T02:45:41.779Z,8.90
2018-12-14T02:48:11.021Z,9.00
2018-12-14T02:50:40.612Z,9.00
2018-12-14T02:53:10.358Z,9.10
2018-12-14T02:55:40.134Z,9.00
2018-12-14T02:58:09.577Z,9.10
2018-12-14T03:00:39.142Z,9.10
2018-12-14T03:03:08.585Z,9.10
2018-12-14T03:05:39.440Z,9.10
2018-12-14T03:08:08.915Z,9.20
2018-12-14T03:10:38.428Z,9.20
2018-12-14T03:13:08.012Z,9.20
2018-12-14T03:15:37.542Z,9.30
2018-12-14T03:18:07.063Z,9.30
2018-12-14T03:20:36.689Z,9.20
2018-12-14T03:23:06.463Z,9.20
2018-12-14T03:25:36.006Z,9.20
2018-12-14T03:28:05.117Z,9.20
2018-12-14T03:30:34.710Z,9.20
2018-12-14T03:33:04.376Z,9.20
2018-12-14T03:35:33.834Z,9.20
2018-12-14T03:38:03.341Z,9.20
2018-12-14T03:40:33.004Z,9.20
2018-12-14T03:43:02.267Z,9.20
2018-12-14T03:45:31.992Z,9.20
2018-12-14T03:48:01.208Z,9.20
2018-12-14T03:50:31.394Z,9.20
2018-12-14T03:53:01.105Z,9.20
2018-12-14T03:55:31.445Z,9.30
2018-12-14T03:58:01.035Z,9.30
2018-12-14T04:00:30.436Z,9.30
2018-12-14T04:03:00.239Z,9.30
2018-12-14T04:05:30.124Z,9.30
2018-12-14T04:08:00.318Z,9.30
2018-12-14T04:13:43.108Z,9.30
2018-12-14T04:16:15.550Z,9.40
2018-12-14T04:18:50.583Z,9.40
2018-12-14T04:24:00.356Z,9.40
2018-12-14T04:26:36.876Z,9.40
2018-12-14T04:29:09.812Z,9.30
2018-12-14T04:31:39.282Z,9.30
2018-12-14T04:34:08.576Z,9.40
2018-12-14T04:36:37.863Z,9.30
2018-12-14T04:39:07.476Z,9.30
2018-12-14T04:41:37.474Z,9.30
2018-12-14T04:44:06.993Z,9.30
2018-12-14T04:46:36.710Z,9.30
2018-12-14T04:49:06.433Z,9.30
2018-12-14T04:51:35.776Z,9.30
2018-12-14T04:54:05.045Z,9.20
2018-12-14T04:56:34.538Z,9.20
2018-12-14T04:59:04.013Z,9.20
2018-12-14T05:01:32.756Z,9.30
2018-12-14T05:04:02.459Z,9.20
2018-12-14T05:06:31.816Z,9.20
2018-12-14T05:09:01.307Z,9.20
2018-12-14T05:11:30.916Z,9.30
2018-12-14T05:14:00.489Z,9.30
2018-12-14T05:16:30.186Z,9.30
2018-12-14T05:18:59.777Z,9.30
2018-12-14T05:21:29.446Z,9.30
2018-12-14T05:23:59.812Z,9.20
2018-12-14T05:26:32.800Z,9.20
2018-12-14T05:29:02.285Z,9.20
2018-12-14T05:31:31.641Z,9.30
2018-12-14T05:34:01.205Z,9.30
2018-12-14T05:36:30.585Z,9.30
2018-12-14T05:38:59.906Z,9.30
2018-12-14T05:41:29.296Z,9.30
2018-12-14T05:43:59.192Z,9.30
2018-12-14T05:46:28.557Z,9.40
2018-12-14T05:48:58.076Z,9.40
2018-12-14T05:51:27.638Z,9.40
2018-12-14T05:53:57.135Z,9.40
2018-12-14T05:56:26.739Z,9.40
2018-12-14T05:58:56.092Z,9.40
2018-12-14T06:01:26.313Z,9.40
2018-12-14T06:03:55.909Z,9.40
2018-12-14T06:06:25.119Z,9.30
2018-12-14T06:08:54.411Z,9.30
2018-12-14T06:11:24.033Z,9.30
2018-12-14T06:13:54.149Z,9.30
2018-12-14T06:16:23.570Z,9.30
2018-12-14T06:18:53.360Z,9.20
2018-12-14T06:21:22.983Z,9.20
2018-12-14T06:23:52.619Z,9.20
2018-12-14T06:26:23.377Z,9.20
2018-12-14T06:28:53.201Z,9.20
2018-12-14T06:31:22.790Z,9.20
2018-12-14T06:33:52.610Z,9.20
2018-12-14T06:36:21.980Z,9.10
2018-12-14T06:38:58.474Z,9.10
2018-12-14T06:41:28.010Z,9.10
2018-12-14T06:43:57.449Z,9.10
2018-12-14T06:46:27.403Z,9.20
2018-12-14T06:48:57.063Z,9.20
2018-12-14T06:51:26.546Z,9.20
2018-12-14T06:53:56.239Z,9.20
2018-12-14T06:56:25.766Z,9.20
2018-12-14T06:58:55.655Z,9.20
2018-12-14T07:01:25.157Z,9.20
2018-12-14T07:03:55.015Z,9.20
2018-12-14T07:06:24.457Z,9.10
2018-12-14T07:08:54.129Z,9.10
2018-12-14T07:11:24.313Z,9.10
2018-12-14T07:13:54.212Z,9.10
2018-12-14T07:16:24.364Z,9.10
2018-12-14T07:18:54.099Z,9.10
2018-12-14T07:21:24.429Z,9.10
2018-12-14T07:23:53.939Z,9.10
2018-12-14T07:26:23.970Z,9.00
2018-12-14T07:28:53.444Z,9.00
2018-12-14T07:31:23.275Z,9.00
2018-12-14T07:33:53.338Z,8.90
2018-12-14T07:36:23.141Z,8.90
2018-12-14T07:38:52.932Z,8.90
2018-12-14T07:41:23.278Z,9.00
2018-12-14T07:43:53.697Z,9.00
2018-12-14T07:46:23.861Z,8.90
2018-12-14T07:48:53.899Z,9.00
2018-12-14T07:51:23.311Z,8.90
2018-12-14T07:53:52.760Z,8.90
2018-12-14T07:56:23.475Z,8.90
2018-12-14T07:58:53.343Z,8.80
2018-12-14T08:01:29.690Z,8.80
2018-12-14T08:04:00.257Z,8.90
2018-12-14T08:06:30.775Z,8.80
2018-12-14T08:09:01.171Z,8.90
2018-12-14T08:11:31.618Z,8.90
2018-12-14T08:14:02.209Z,8.90
2018-12-14T08:16:33.992Z,8.90
2018-12-14T08:19:03.389Z,8.80
2018-12-14T08:21:32.899Z,8.70
2018-12-14T08:24:02.540Z,8.80
2018-12-14T08:26:31.844Z,8.70
2018-12-14T08:29:01.518Z,8.80
2018-12-14T08:31:31.077Z,8.70
2018-12-14T08:34:00.694Z,8.70
2018-12-14T08:36:30.017Z,8.60
2018-12-14T08:38:59.612Z,8.70
2018-12-14T08:41:29.329Z,8.60
2018-12-14T08:43:58.961Z,8.70
2018-12-14T08:46:31.372Z,8.70
2018-12-14T08:49:01.741Z,8.70
2018-12-14T08:51:31.263Z,8.70
2018-12-14T08:54:00.823Z,8.60
2018-12-14T08:56:30.131Z,8.60
2018-12-14T08:58:59.538Z,8.60
2018-12-14T09:01:28.754Z,8.70
2018-12-14T09:03:59.159Z,8.60
2018-12-14T09:06:28.730Z,8.70
2018-12-14T09:08:58.362Z,8.60
2018-12-14T09:11:27.886Z,8.70
2018-12-14T09:13:57.370Z,8.60
2018-12-14T09:16:26.589Z,8.70
2018-12-14T09:18:56.481Z,8.70
2018-12-14T09:21:26.001Z,8.60
2018-12-14T09:23:55.532Z,8.60
2018-12-14T09:26:25.160Z,8.60
2018-12-14T09:28:54.765Z,8.60
2018-12-14T09:31:24.445Z,8.60
2018-12-14T09:33:54.719Z,8.60
2018-12-14T09:36:24.115Z,8.70
2018-12-14T09:38:53.437Z,8.60
2018-12-14T09:41:23.833Z,8.60
2018-12-14T09:43:54.502Z,8.60
2018-12-14T09:46:23.538Z,8.60
2018-12-14T09:48:52.890Z,8.50
2018-12-14T09:51:22.193Z,8.50
2018-12-14T09:53:51.816Z,8.50
2018-12-14T09:56:21.286Z,8.50
2018-12-14T09:58:50.782Z,8.40
2018-12-14T10:01:20.307Z,8.50
2018-12-14T10:03:50.095Z,8.40
2018-12-14T10:06:19.631Z,8.40
2018-12-14T10:08:49.102Z,8.40
2018-12-14T10:11:18.532Z,8.50
2018-12-14T10:13:48.440Z,8.50
2018-12-14T10:16:17.880Z,8.40
2018-12-14T10:18:47.852Z,8.40
2018-12-14T10:21:17.330Z,8.40
2018-12-14T10:23:46.864Z,8.40
2018-12-14T10:26:16.464Z,8.50
2018-12-14T10:28:46.016Z,8.60
2018-12-14T10:31:15.424Z,8.50
2018-12-14T10:33:44.922Z,8.50
2018-12-14T10:36:14.597Z,8.50
2018-12-14T10:38:44.522Z,8.40
2018-12-14T10:41:14.184Z,8.50
2018-12-14T10:43:43.759Z,8.60
2018-12-14T10:46:13.268Z,8.50
2018-12-14T10:48:42.760Z,8.60
2018-12-14T10:51:13.005Z,8.70
2018-12-14T10:53:42.850Z,8.80
2018-12-14T10:56:12.373Z,8.70
2018-12-14T10:58:41.454Z,8.70
2018-12-14T11:04:07.238Z,8.70
2018-12-14T11:06:36.711Z,8.70
2018-12-14T11:09:06.394Z,8.70
2018-12-14T11:11:35.777Z,8.90
2018-12-14T11:14:06.622Z,8.90
2018-12-14T11:16:36.012Z,8.90
2018-12-14T11:19:05.369Z,8.90
2018-12-14T11:21:34.662Z,8.80
2018-12-14T11:24:04.292Z,8.80
2018-12-14T11:26:34.601Z,8.80
2018-12-14T11:29:04.982Z,8.70
2018-12-14T11:31:34.468Z,8.70
2018-12-14T11:34:04.057Z,8.60
2018-12-14T11:36:33.546Z,8.50
2018-12-14T11:39:04.241Z,8.40
2018-12-14T11:41:33.593Z,8.40
2018-12-14T11:44:03.470Z,8.40
2018-12-14T11:46:33.013Z,8.40
2018-12-14T11:49:02.580Z,8.40
2018-12-14T11:51:31.965Z,8.40
2018-12-14T11:54:01.534Z,8.40
2018-12-14T11:56:31.447Z,8.40
2018-12-14T11:59:01.696Z,8.40
2018-12-14T12:01:31.207Z,8.40
2018-12-14T12:04:00.498Z,8.40
2018-12-14T12:06:29.959Z,8.40
2018-12-14T12:08:59.446Z,8.30
2018-12-14T12:11:28.799Z,8.30
2018-12-14T12:13:58.567Z,8.30
2018-12-14T12:16:28.107Z,8.30
2018-12-14T12:18:57.433Z,8.40
2018-12-14T12:21:26.897Z,8.40
2018-12-14T12:23:56.311Z,8.40
2018-12-14T12:26:25.683Z,8.30
2018-12-14T12:28:55.279Z,8.30
2018-12-14T12:31:24.691Z,8.30
2018-12-14T12:33:53.863Z,8.40
2018-12-14T12:36:23.445Z,8.40
2018-12-14T12:38:53.104Z,8.40
2018-12-14T12:41:22.612Z,8.50
2018-12-14T12:43:52.503Z,8.40
2018-12-14T12:46:21.982Z,8.40
2018-12-14T12:48:52.565Z,8.40
2018-12-14T12:51:22.124Z,8.40
2018-12-14T12:53:51.654Z,8.30
2018-12-14T12:56:21.855Z,8.30
2018-12-14T12:58:51.582Z,8.30
2018-12-14T13:01:21.121Z,8.30
2018-12-14T13:03:52.151Z,8.30
2018-12-14T13:06:21.808Z,8.30
2018-12-14T13:08:51.299Z,8.30
2018-12-14T13:11:20.603Z,8.30
2018-12-14T13:13:50.421Z,8.20
2018-12-14T13:16:20.777Z,8.10
2018-12-14T13:18:50.472Z,8.10
2018-12-14T13:21:19.745Z,8.10
2018-12-14T13:23:50.137Z,8.10
2018-12-14T13:26:19.490Z,8.10
2018-12-14T13:28:49.235Z,8.10
2018-12-14T13:31:18.904Z,8.10
2018-12-14T13:33:48.967Z,7.90
2018-12-14T13:36:18.412Z,7.90
2018-12-14T13:38:49.259Z,7.90
2018-12-14T13:41:19.782Z,7.80
2018-12-14T13:43:50.251Z,7.80
2018-12-14T13:46:19.917Z,7.80
2018-12-14T13:48:49.289Z,7.80
2018-12-14T13:51:19.372Z,7.80
2018-12-14T13:53:48.252Z,7.80
2018-12-14T13:56:17.827Z,7.80
2018-12-14T13:58:47.098Z,7.80
2018-12-14T14:01:16.478Z,7.80
2018-12-14T14:03:45.988Z,7.60
2018-12-14T14:06:15.436Z,7.50
2018-12-14T14:08:44.835Z,7.60
2018-12-14T14:11:14.655Z,7.80
2018-12-14T14:13:44.282Z,7.80
2018-12-14T14:16:13.700Z,7.80
2018-12-14T14:18:43.971Z,7.90
2018-12-14T14:21:13.515Z,7.90
2018-12-14T14:23:43.851Z,8.00
2018-12-14T14:26:13.615Z,8.00
2018-12-14T14:28:43.106Z,8.00
2018-12-14T14:31:12.759Z,8.00
2018-12-14T14:33:42.625Z,8.00
2018-12-14T14:36:12.401Z,7.90
2018-12-14T14:38:41.920Z,8.00
2018-12-14T14:41:11.427Z,8.00
2018-12-14T14:43:41.858Z,8.00
2018-12-14T14:46:12.272Z,8.00
2018-12-14T14:48:42.362Z,7.90
2018-12-14T14:51:12.701Z,8.00
2018-12-14T14:53:42.223Z,7.90
2018-12-14T14:56:20.306Z,7.90
2018-12-14T14:58:51.444Z,7.80
2018-12-14T15:01:21.757Z,7.80
2018-12-14T15:03:51.409Z,7.80
2018-12-14T15:06:20.728Z,7.90
2018-12-14T15:08:49.918Z,8.00
2018-12-14T15:11:19.341Z,7.90
2018-12-14T15:13:49.161Z,7.80
2018-12-14T15:16:18.564Z,7.80
2018-12-14T15:18:47.977Z,7.80
2018-12-14T15:21:17.707Z,7.80
2018-12-14T15:23:47.212Z,7.90
2018-12-14T15:26:17.268Z,7.90
2018-12-14T15:28:46.755Z,7.90
2018-12-14T15:31:16.216Z,8.00
2018-12-14T15:33:45.945Z,8.20
2018-12-14T15:36:15.224Z,8.50
2018-12-14T15:38:44.645Z,8.60
2018-12-14T15:41:13.815Z,8.60
2018-12-14T15:43:43.456Z,8.60
2018-12-14T15:46:12.928Z,8.70
2018-12-14T15:48:42.549Z,8.80
2018-12-14T15:51:12.135Z,8.90
2018-12-14T15:53:41.645Z,9.20
2018-12-14T15:56:11.147Z,9.30
2018-12-14T15:58:40.596Z,9.40
2018-12-14T16:01:10.014Z,9.50
2018-12-14T16:03:39.760Z,9.70
2018-12-14T16:06:08.939Z,10.00
2018-12-14T16:08:38.424Z,10.20
2018-12-14T16:11:07.809Z,10.10
2018-12-14T16:13:37.621Z,10.10
2018-12-14T16:16:07.305Z,10.00
2018-12-14T16:18:36.591Z,10.20
2018-12-14T16:21:06.129Z,10.30
2018-12-14T16:23:35.884Z,10.30
2018-12-14T16:26:05.481Z,10.30
2018-12-14T16:28:34.924Z,10.20
2018-12-14T16:31:04.769Z,10.20
2018-12-14T16:33:34.412Z,10.30
2018-12-14T16:36:04.003Z,10.40
2018-12-14T16:38:34.502Z,10.20
2018-12-14T16:41:04.517Z,10.10
2018-12-14T16:43:33.998Z,10.20
2018-12-14T16:46:03.419Z,10.20
2018-12-14T16:48:32.939Z,10.30
2018-12-14T16:51:03.234Z,10.30
2018-12-14T16:53:32.550Z,10.30
2018-12-14T16:56:01.825Z,10.20
2018-12-14T16:58:31.275Z,10.20
2018-12-14T17:01:00.781Z,10.20
2018-12-14T17:03:30.508Z,10.30
2018-12-14T17:05:59.928Z,10.40
2018-12-14T17:08:30.620Z,10.50
2018-12-14T17:11:01.164Z,10.50
2018-12-14T17:13:30.432Z,10.80
2018-12-14T17:16:00.254Z,10.90
2018-12-14T17:18:29.538Z,10.80
2018-12-14T17:20:58.230Z,10.80
2018-12-14T17:23:27.217Z,11.10
2018-12-14T17:25:56.750Z,11.10
2018-12-14T17:28:26.051Z,11.00
2018-12-14T17:30:55.911Z,10.80
2018-12-14T17:33:26.501Z,10.90
2018-12-14T17:35:55.916Z,10.90
2018-12-14T17:38:25.565Z,10.90
2018-12-14T17:40:55.155Z,11.00
2018-12-14T17:43:24.500Z,11.30
2018-12-14T17:45:54.204Z,11.30
2018-12-14T17:48:23.721Z,11.20
2018-12-14T17:50:53.135Z,11.10
2018-12-14T17:53:23.972Z,11.00
2018-12-14T17:55:54.381Z,10.90
2018-12-14T17:58:24.138Z,10.90
2018-12-14T18:00:58.377Z,10.80
2018-12-14T18:03:24.618Z,10.80
2018-12-14T18:05:54.304Z,10.60
2018-12-14T18:08:23.735Z,10.40
2018-12-14T18:10:53.254Z,10.10
2018-12-14T18:13:22.887Z,10.00
2018-12-14T18:15:52.206Z,9.80
2018-12-14T18:18:21.754Z,9.70
2018-12-14T18:20:51.536Z,9.70
2018-12-14T18:23:22.503Z,9.60
2018-12-14T18:25:51.770Z,9.60
2018-12-14T18:28:21.173Z,9.60
2018-12-14T18:30:51.898Z,9.50
2018-12-14T18:33:21.267Z,9.50
2018-12-14T18:35:50.829Z,9.40
2018-12-14T18:38:20.480Z,9.40
2018-12-14T18:40:50.772Z,9.40
2018-12-14T18:43:20.408Z,9.40
2018-12-14T18:45:53.241Z,9.40
2018-12-14T18:48:21.144Z,9.40
2018-12-14T18:50:50.618Z,9.40
2018-12-14T18:53:20.209Z,9.40
2018-12-14T18:55:49.545Z,9.60
2018-12-14T18:58:19.352Z,9.60
2018-12-14T19:00:48.789Z,9.70
2018-12-14T19:03:18.688Z,10.00
2018-12-14T19:05:48.100Z,10.30
2018-12-14T19:08:18.110Z,10.40
2018-12-14T19:10:47.479Z,10.40
2018-12-14T19:13:17.268Z,10.50
2018-12-14T19:15:46.849Z,10.60
2018-12-14T19:18:16.201Z,10.60
2018-12-14T19:20:45.507Z,10.70
2018-12-14T19:23:19.661Z,10.70
2018-12-14T19:25:45.443Z,10.80
2018-12-14T19:28:14.712Z,10.90
2018-12-14T19:30:44.058Z,10.90
2018-12-14T19:33:13.374Z,10.80
2018-12-14T19:35:43.029Z,10.90
2018-12-14T19:38:12.332Z,10.90
2018-12-14T19:40:41.939Z,10.90
2018-12-14T19:43:11.349Z,11.00
2018-12-14T19:45:41.949Z,11.20
2018-12-14T19:48:11.544Z,11.20
2018-12-14T19:50:41.053Z,11.20
2018-12-14T19:53:10.742Z,11.20
2018-12-14T19:55:40.155Z,11.20
2018-12-14T19:58:09.784Z,11.10
2018-12-14T20:00:39.236Z,11.10
2018-12-14T20:03:08.279Z,11.10
2018-12-14T20:05:38.449Z,11.10
2018-12-14T20:08:07.899Z,11.10
2018-12-14T20:10:37.644Z,11.10
2018-12-14T20:13:08.059Z,11.00
2018-12-14T20:15:37.709Z,11.10
2018-12-14T20:18:07.188Z,11.00
2018-12-14T20:20:36.511Z,11.00
2018-12-14T20:23:05.898Z,11.10
2018-12-14T20:25:35.215Z,11.00
2018-12-14T20:28:04.719Z,11.10
2018-12-14T20:30:34.308Z,11.20
2018-12-14T20:33:03.851Z,11.10
2018-12-14T20:35:33.283Z,11.10
2018-12-14T20:38:02.964Z,11.20
2018-12-14T20:40:32.423Z,11.20
2018-12-14T20:43:01.710Z,11.20
2018-12-14T20:45:31.058Z,11.20
2018-12-14T20:48:00.691Z,11.20
2018-12-14T20:50:29.728Z,11.20
2018-12-14T20:52:59.383Z,11.30
2018-12-14T20:55:28.899Z,11.30
2018-12-14T20:57:58.415Z,11.30
2018-12-14T21:00:29.005Z,11.60
2018-12-14T21:02:58.876Z,11.60
2018-12-14T21:05:28.109Z,11.80
2018-12-14T21:07:57.440Z,11.90
2018-12-14T21:10:26.870Z,12.00
2018-12-14T21:12:57.365Z,11.90
2018-12-14T21:15:26.802Z,11.90
2018-12-14T21:17:56.039Z,11.90
2018-12-14T21:20:25.326Z,11.90
2018-12-14T21:22:54.641Z,11.90
2018-12-14T21:25:24.581Z,11.90
2018-12-14T21:27:54.024Z,11.80
2018-12-14T21:30:23.869Z,11.80
2018-12-14T21:32:53.496Z,11.80
2018-12-14T21:35:22.679Z,11.80
2018-12-14T21:37:52.223Z,11.80
2018-12-14T21:40:22.098Z,11.80
2018-12-14T21:42:51.587Z,11.80
2018-12-14T21:45:22.044Z,11.90
2018-12-14T21:47:52.694Z,11.90
2018-12-14T21:50:22.026Z,11.90
2018-12-14T21:52:52.223Z,11.90
2018-12-14T21:55:21.977Z,12.10
2018-12-14T21:57:51.562Z,12.20
2018-12-14T22:00:21.242Z,12.20
2018-12-14T22:02:50.724Z,12.20
2018-12-14T22:05:19.933Z,12.40
2018-12-14T22:07:49.808Z,12.50
2018-12-14T22:10:19.182Z,12.60
2018-12-14T22:12:48.449Z,12.70
2018-12-14T22:15:18.459Z,12.80
2018-12-14T22:17:47.621Z,12.80
2018-12-14T22:20:18.092Z,12.80
2018-12-14T22:22:47.645Z,12.80
2018-12-14T22:25:17.516Z,12.80
2018-12-14T22:27:47.219Z,12.80
2018-12-14T22:30:16.528Z,12.70
2018-12-14T22:32:45.814Z,12.70
2018-12-14T22:35:15.329Z,12.60
2018-12-14T22:37:44.964Z,12.60
2018-12-14T22:40:14.641Z,12.50
2018-12-14T22:42:44.038Z,12.60
2018-12-14T22:45:14.430Z,12.60
2018-12-14T22:47:43.979Z,12.60
2018-12-14T22:50:13.399Z,12.60
2018-12-14T22:52:42.904Z,12.60
2018-12-14T22:55:12.357Z,12.50
2018-12-14T22:57:42.609Z,12.40
2018-12-14T23:00:12.687Z,12.40
2018-12-14T23:02:42.010Z,12.40
2018-12-14T23:05:11.491Z,12.50
2018-12-14T23:07:40.992Z,12.50
2018-12-14T23:10:10.534Z,12.40
2018-12-14T23:12:40.091Z,12.40
2018-12-14T23:15:09.578Z,12.40
2018-12-14T23:17:38.947Z,12.30
2018-12-14T23:20:08.394Z,12.30
2018-12-14T23:22:37.977Z,12.30
2018-12-14T23:25:07.504Z,12.20
2018-12-14T23:27:37.084Z,12.30
2018-12-14T23:30:06.848Z,12.30
2018-12-14T23:32:36.420Z,12.30
2018-12-14T23:35:06.043Z,12.30
2018-12-14T23:37:35.686Z,12.30
2018-12-14T23:40:06.140Z,12.30
2018-12-14T23:42:35.616Z,12.30
2018-12-14T23:45:05.560Z,12.20
2018-12-14T23:47:35.046Z,12.20
2018-12-14T23:50:05.248Z,12.10
2018-12-14T23:52:34.854Z,12.10
2018-12-14T23:55:04.416Z,12.10
2018-12-14T23:57:34.034Z,12.10
